sensor_id;sensor_type;location;lat;lon;timestamp;temperature;humidity
9772;DHT22;4925;52.588;13.370;2024-03-07T00:02:05;7.90;99.90
9772;DHT22;4925;52.588;13.370;2024-03-07T00:04:32;7.90;99.90
9772;DHT22;4925;52.588;13.370;2024-03-07T00:06:58;7.90;99.90
9772;DHT22;4925;52.588;13.370;2024-03-07T00:09:23;7.90;99.90
9772;DHT22;4925;52.588;13.370;2024-03-07T00:11:50;8.00;99.90
9772;DHT22;4925;52.588;13.370;2024-03-07T00:14:16;8.00;99.90
9772;DHT22;4925;52.588;13.370;2024-03-07T00:16:44;8.00;99.90
9772;DHT22;4925;52.588;13.370;2024-03-07T00:19:10;7.90;99.90
9772;DHT22;4925;52.588;13.370;2024-03-07T00:21:35;7.90;99.90
9772;DHT22;4925;52.588;13.370;2024-03-07T00:24:01;8.00;99.90
9772;DHT22;4925;52.588;13.370;2024-03-07T00:26:28;8.00;99.90
9772;DHT22;4925;52.588;13.370;2024-03-07T00:28:56;8.00;99.90
9772;DHT22;4925;52.588;13.370;2024-03-07T00:31:23;8.00;99.90
9772;DHT22;4925;52.588;13.370;2024-03-07T00:33:52;8.00;99.90
9772;DHT22;4925;52.588;13.370;2024-03-07T00:36:18;8.00;99.90
9772;DHT22;4925;52.588;13.370;2024-03-07T00:38:43;8.00;99.90
9772;DHT22;4925;52.588;13.370;2024-03-07T00:41:10;8.00;99.90
9772;DHT22;4925;52.588;13.370;2024-03-07T00:43:36;8.00;99.90
9772;DHT22;4925;52.588;13.370;2024-03-07T00:46:05;8.00;99.90
9772;DHT22;4925;52.588;13.370;2024-03-07T00:48:32;8.00;99.90
9772;DHT22;4925;52.588;13.370;2024-03-07T00:50:57;8.00;99.90
9772;DHT22;4925;52.588;13.370;2024-03-07T00:53:23;8.00;99.90
9772;DHT22;4925;52.588;13.370;2024-03-07T00:55:49;7.90;99.90
9772;DHT22;4925;52.588;13.370;2024-03-07T00:58:14;7.90;99.90
9772;DHT22;4925;52.588;13.370;2024-03-07T01:00:40;7.90;99.90
9772;DHT22;4925;52.588;13.370;2024-03-07T01:03:09;7.90;99.90
9772;DHT22;4925;52.588;13.370;2024-03-07T01:05:37;8.00;99.90
9772;DHT22;4925;52.588;13.370;2024-03-07T01:08:04;8.00;99.90
9772;DHT22;4925;52.588;13.370;2024-03-07T01:10:32;7.90;99.90
9772;DHT22;4925;52.588;13.370;2024-03-07T01:12:59;7.90;99.90
9772;DHT22;4925;52.588;13.370;2024-03-07T01:15:28;8.00;99.90
9772;DHT22;4925;52.588;13.370;2024-03-07T01:17:54;8.00;99.90
9772;DHT22;4925;52.588;13.370;2024-03-07T01:20:19;8.00;99.90
9772;DHT22;4925;52.588;13.370;2024-03-07T01:22:46;7.90;99.90
9772;DHT22;4925;52.588;13.370;2024-03-07T01:25:11;7.90;99.90
9772;DHT22;4925;52.588;13.370;2024-03-07T01:27:40;7.80;99.90
9772;DHT22;4925;52.588;13.370;2024-03-07T01:30:06;7.80;99.90
9772;DHT22;4925;52.588;13.370;2024-03-07T01:32:33;7.80;99.90
9772;DHT22;4925;52.588;13.370;2024-03-07T01:34:59;7.80;99.90
9772;DHT22;4925;52.588;13.370;2024-03-07T01:37:25;7.80;99.90
9772;DHT22;4925;52.588;13.370;2024-03-07T01:39:50;7.80;99.90
9772;DHT22;4925;52.588;13.370;2024-03-07T01:42:16;7.80;99.90
9772;DHT22;4925;52.588;13.370;2024-03-07T01:44:42;7.80;99.90
9772;DHT22;4925;52.588;13.370;2024-03-07T01:47:09;7.70;99.90
9772;DHT22;4925;52.588;13.370;2024-03-07T01:49:36;7.70;99.90
9772;DHT22;4925;52.588;13.370;2024-03-07T01:52:05;7.70;99.90
9772;DHT22;4925;52.588;13.370;2024-03-07T01:54:31;7.70;99.90
9772;DHT22;4925;52.588;13.370;2024-03-07T01:56:58;7.70;99.90
9772;DHT22;4925;52.588;13.370;2024-03-07T01:59:24;7.70;99.90
9772;DHT22;4925;52.588;13.370;2024-03-07T02:01:50;7.70;99.90
9772;DHT22;4925;52.588;13.370;2024-03-07T02:04:18;7.60;99.90
9772;DHT22;4925;52.588;13.370;2024-03-07T02:06:43;7.70;99.90
9772;DHT22;4925;52.588;13.370;2024-03-07T02:09:13;7.70;99.90
9772;DHT22;4925;52.588;13.370;2024-03-07T02:11:40;7.70;99.90
9772;DHT22;4925;52.588;13.370;2024-03-07T02:14:07;7.70;99.90
9772;DHT22;4925;52.588;13.370;2024-03-07T02:16:32;7.70;99.90
9772;DHT22;4925;52.588;13.370;2024-03-07T02:18:58;7.80;99.90
9772;DHT22;4925;52.588;13.370;2024-03-07T02:21:26;7.80;99.90
9772;DHT22;4925;52.588;13.370;2024-03-07T02:23:52;7.80;99.90
9772;DHT22;4925;52.588;13.370;2024-03-07T02:26:19;7.80;99.90
9772;DHT22;4925;52.588;13.370;2024-03-07T02:28:45;7.70;99.90
9772;DHT22;4925;52.588;13.370;2024-03-07T02:31:10;7.80;99.90
9772;DHT22;4925;52.588;13.370;2024-03-07T02:33:36;7.80;99.90
9772;DHT22;4925;52.588;13.370;2024-03-07T02:36:01;7.80;99.90
9772;DHT22;4925;52.588;13.370;2024-03-07T02:38:28;7.70;99.90
9772;DHT22;4925;52.588;13.370;2024-03-07T02:40:54;7.70;99.90
9772;DHT22;4925;52.588;13.370;2024-03-07T02:43:19;7.70;99.90
9772;DHT22;4925;52.588;13.370;2024-03-07T02:45:48;7.70;99.90
9772;DHT22;4925;52.588;13.370;2024-03-07T02:48:18;7.60;99.90
9772;DHT22;4925;52.588;13.370;2024-03-07T02:50:54;7.60;99.90
9772;DHT22;4925;52.588;13.370;2024-03-07T02:53:20;7.60;99.90
9772;DHT22;4925;52.588;13.370;2024-03-07T02:55:46;7.60;99.90
9772;DHT22;4925;52.588;13.370;2024-03-07T02:58:11;7.60;99.90
9772;DHT22;4925;52.588;13.370;2024-03-07T03:00:37;7.60;99.90
9772;DHT22;4925;52.588;13.370;2024-03-07T03:03:03;7.60;99.90
9772;DHT22;4925;52.588;13.370;2024-03-07T03:05:28;7.50;99.90
9772;DHT22;4925;52.588;13.370;2024-03-07T03:07:55;7.50;99.90
9772;DHT22;4925;52.588;13.370;2024-03-07T03:10:25;7.50;99.90
9772;DHT22;4925;52.588;13.370;2024-03-07T03:12:57;7.50;99.90
9772;DHT22;4925;52.588;13.370;2024-03-07T03:15:24;7.50;99.90
9772;DHT22;4925;52.588;13.370;2024-03-07T03:17:51;7.50;99.90
9772;DHT22;4925;52.588;13.370;2024-03-07T03:20:17;7.40;99.90
9772;DHT22;4925;52.588;13.370;2024-03-07T03:23:02;7.50;99.90
9772;DHT22;4925;52.588;13.370;2024-03-07T03:25:31;7.40;99.90
9772;DHT22;4925;52.588;13.370;2024-03-07T03:28:06;7.40;99.90
9772;DHT22;4925;52.588;13.370;2024-03-07T03:30:38;7.40;99.90
9772;DHT22;4925;52.588;13.370;2024-03-07T03:33:05;7.40;99.90
9772;DHT22;4925;52.588;13.370;2024-03-07T03:35:31;7.40;99.90
9772;DHT22;4925;52.588;13.370;2024-03-07T03:37:58;7.40;99.90
9772;DHT22;4925;52.588;13.370;2024-03-07T03:40:24;7.40;99.90
9772;DHT22;4925;52.588;13.370;2024-03-07T03:42:50;7.40;99.90
9772;DHT22;4925;52.588;13.370;2024-03-07T03:45:15;7.40;99.90
9772;DHT22;4925;52.588;13.370;2024-03-07T03:47:44;7.30;99.90
9772;DHT22;4925;52.588;13.370;2024-03-07T03:50:13;7.30;99.90
9772;DHT22;4925;52.588;13.370;2024-03-07T03:52:39;7.20;99.90
9772;DHT22;4925;52.588;13.370;2024-03-07T03:55:06;7.20;99.90
9772;DHT22;4925;52.588;13.370;2024-03-07T03:57:32;7.20;99.90
9772;DHT22;4925;52.588;13.370;2024-03-07T03:59:59;7.30;99.90
9772;DHT22;4925;52.588;13.370;2024-03-07T04:02:26;7.30;99.90
9772;DHT22;4925;52.588;13.370;2024-03-07T04:04:54;7.20;99.90
9772;DHT22;4925;52.588;13.370;2024-03-07T04:07:20;7.20;99.90
9772;DHT22;4925;52.588;13.370;2024-03-07T04:09:47;7.20;99.90
9772;DHT22;4925;52.588;13.370;2024-03-07T04:12:12;7.10;99.90
9772;DHT22;4925;52.588;13.370;2024-03-07T04:14:44;7.10;99.90
9772;DHT22;4925;52.588;13.370;2024-03-07T04:17:11;7.10;99.90
9772;DHT22;4925;52.588;13.370;2024-03-07T04:19:41;7.10;99.90
9772;DHT22;4925;52.588;13.370;2024-03-07T04:22:07;7.10;99.90
9772;DHT22;4925;52.588;13.370;2024-03-07T04:24:36;7.00;99.90
9772;DHT22;4925;52.588;13.370;2024-03-07T04:27:04;6.90;99.90
9772;DHT22;4925;52.588;13.370;2024-03-07T04:29:31;6.90;99.90
9772;DHT22;4925;52.588;13.370;2024-03-07T04:31:57;6.90;99.90
9772;DHT22;4925;52.588;13.370;2024-03-07T04:34:24;6.90;99.90
9772;DHT22;4925;52.588;13.370;2024-03-07T04:36:50;6.90;99.90
9772;DHT22;4925;52.588;13.370;2024-03-07T04:39:16;6.90;99.90
9772;DHT22;4925;52.588;13.370;2024-03-07T04:41:53;6.90;99.90
9772;DHT22;4925;52.588;13.370;2024-03-07T04:44:20;6.80;99.90
9772;DHT22;4925;52.588;13.370;2024-03-07T04:46:50;6.80;99.90
9772;DHT22;4925;52.588;13.370;2024-03-07T04:49:24;6.80;99.90
9772;DHT22;4925;52.588;13.370;2024-03-07T04:51:54;6.80;99.90
9772;DHT22;4925;52.588;13.370;2024-03-07T04:54:21;6.80;99.90
9772;DHT22;4925;52.588;13.370;2024-03-07T04:56:49;6.70;99.90
9772;DHT22;4925;52.588;13.370;2024-03-07T04:59:19;6.70;99.90
9772;DHT22;4925;52.588;13.370;2024-03-07T05:01:46;6.60;99.90
9772;DHT22;4925;52.588;13.370;2024-03-07T05:04:13;6.50;99.90
9772;DHT22;4925;52.588;13.370;2024-03-07T05:06:39;6.50;99.90
9772;DHT22;4925;52.588;13.370;2024-03-07T05:09:06;6.40;99.90
9772;DHT22;4925;52.588;13.370;2024-03-07T05:11:36;6.40;99.90
9772;DHT22;4925;52.588;13.370;2024-03-07T05:14:03;6.40;99.90
9772;DHT22;4925;52.588;13.370;2024-03-07T05:16:30;6.30;99.90
9772;DHT22;4925;52.588;13.370;2024-03-07T05:19:00;6.30;99.90
9772;DHT22;4925;52.588;13.370;2024-03-07T05:21:26;6.30;99.90
9772;DHT22;4925;52.588;13.370;2024-03-07T05:23:58;6.30;99.90
9772;DHT22;4925;52.588;13.370;2024-03-07T05:26:25;6.30;99.90
9772;DHT22;4925;52.588;13.370;2024-03-07T05:28:52;6.30;99.90
9772;DHT22;4925;52.588;13.370;2024-03-07T05:31:20;6.30;99.90
9772;DHT22;4925;52.588;13.370;2024-03-07T05:33:46;6.20;99.90
9772;DHT22;4925;52.588;13.370;2024-03-07T05:36:13;6.10;99.90
9772;DHT22;4925;52.588;13.370;2024-03-07T05:38:43;6.10;99.90
9772;DHT22;4925;52.588;13.370;2024-03-07T05:41:09;6.10;99.90
9772;DHT22;4925;52.588;13.370;2024-03-07T05:43:36;6.10;99.90
9772;DHT22;4925;52.588;13.370;2024-03-07T05:46:02;6.10;99.90
9772;DHT22;4925;52.588;13.370;2024-03-07T05:48:29;6.10;99.90
9772;DHT22;4925;52.588;13.370;2024-03-07T05:50:55;6.10;99.90
9772;DHT22;4925;52.588;13.370;2024-03-07T05:53:21;6.10;99.90
9772;DHT22;4925;52.588;13.370;2024-03-07T05:55:46;6.00;99.90
9772;DHT22;4925;52.588;13.370;2024-03-07T05:58:18;6.00;99.90
9772;DHT22;4925;52.588;13.370;2024-03-07T06:00:48;6.10;99.90
9772;DHT22;4925;52.588;13.370;2024-03-07T06:03:20;6.10;99.90
9772;DHT22;4925;52.588;13.370;2024-03-07T06:05:47;6.10;99.90
9772;DHT22;4925;52.588;13.370;2024-03-07T06:08:18;6.00;99.90
9772;DHT22;4925;52.588;13.370;2024-03-07T06:10:44;6.00;99.90
9772;DHT22;4925;52.588;13.370;2024-03-07T06:13:14;6.00;99.90
9772;DHT22;4925;52.588;13.370;2024-03-07T06:15:43;5.90;99.90
9772;DHT22;4925;52.588;13.370;2024-03-07T06:18:09;5.90;99.90
9772;DHT22;4925;52.588;13.370;2024-03-07T06:20:42;5.90;99.90
9772;DHT22;4925;52.588;13.370;2024-03-07T06:23:09;5.90;99.90
9772;DHT22;4925;52.588;13.370;2024-03-07T06:25:38;5.90;99.90
9772;DHT22;4925;52.588;13.370;2024-03-07T06:28:13;5.90;99.90
9772;DHT22;4925;52.588;13.370;2024-03-07T06:30:44;5.80;99.90
9772;DHT22;4925;52.588;13.370;2024-03-07T06:33:11;5.80;99.90
9772;DHT22;4925;52.588;13.370;2024-03-07T06:35:37;5.80;99.90
9772;DHT22;4925;52.588;13.370;2024-03-07T06:38:06;5.80;99.90
9772;DHT22;4925;52.588;13.370;2024-03-07T06:40:37;5.70;99.90
9772;DHT22;4925;52.588;13.370;2024-03-07T06:43:03;5.70;99.90
9772;DHT22;4925;52.588;13.370;2024-03-07T06:45:33;5.70;99.90
9772;DHT22;4925;52.588;13.370;2024-03-07T06:47:59;5.70;99.90
9772;DHT22;4925;52.588;13.370;2024-03-07T06:50:25;5.80;99.90
9772;DHT22;4925;52.588;13.370;2024-03-07T06:52:51;5.80;99.90
9772;DHT22;4925;52.588;13.370;2024-03-07T06:55:18;5.70;99.90
9772;DHT22;4925;52.588;13.370;2024-03-07T06:57:44;5.70;99.90
9772;DHT22;4925;52.588;13.370;2024-03-07T07:00:12;5.70;99.90
9772;DHT22;4925;52.588;13.370;2024-03-07T07:02:38;5.70;99.90
9772;DHT22;4925;52.588;13.370;2024-03-07T07:05:10;5.80;99.90
9772;DHT22;4925;52.588;13.370;2024-03-07T07:07:40;5.70;99.90
9772;DHT22;4925;52.588;13.370;2024-03-07T07:10:07;5.70;99.90
9772;DHT22;4925;52.588;13.370;2024-03-07T07:12:35;5.70;99.90
9772;DHT22;4925;52.588;13.370;2024-03-07T07:15:02;5.70;99.90
9772;DHT22;4925;52.588;13.370;2024-03-07T07:17:29;5.80;99.90
9772;DHT22;4925;52.588;13.370;2024-03-07T07:19:57;5.80;99.90
9772;DHT22;4925;52.588;13.370;2024-03-07T07:22:25;5.90;99.90
9772;DHT22;4925;52.588;13.370;2024-03-07T07:24:53;6.00;99.90
9772;DHT22;4925;52.588;13.370;2024-03-07T07:27:22;6.10;99.90
9772;DHT22;4925;52.588;13.370;2024-03-07T07:29:50;6.10;99.90
9772;DHT22;4925;52.588;13.370;2024-03-07T07:32:15;6.00;99.90
9772;DHT22;4925;52.588;13.370;2024-03-07T07:34:41;6.00;99.90
9772;DHT22;4925;52.588;13.370;2024-03-07T07:37:09;5.90;99.90
9772;DHT22;4925;52.588;13.370;2024-03-07T07:39:35;6.00;99.90
9772;DHT22;4925;52.588;13.370;2024-03-07T07:42:00;5.90;99.90
9772;DHT22;4925;52.588;13.370;2024-03-07T07:44:26;5.90;99.90
9772;DHT22;4925;52.588;13.370;2024-03-07T07:46:53;5.90;99.90
9772;DHT22;4925;52.588;13.370;2024-03-07T07:49:19;6.00;99.90
9772;DHT22;4925;52.588;13.370;2024-03-07T07:51:45;6.00;99.90
9772;DHT22;4925;52.588;13.370;2024-03-07T07:54:17;6.10;99.90
9772;DHT22;4925;52.588;13.370;2024-03-07T08:03:22;6.20;99.90
9772;DHT22;4925;52.588;13.370;2024-03-07T08:05:48;6.20;99.90
9772;DHT22;4925;52.588;13.370;2024-03-07T08:08:14;6.30;99.90
9772;DHT22;4925;52.588;13.370;2024-03-07T08:10:43;6.40;99.90
9772;DHT22;4925;52.588;13.370;2024-03-07T08:13:13;6.40;99.90
9772;DHT22;4925;52.588;13.370;2024-03-07T08:15:38;6.50;99.90
9772;DHT22;4925;52.588;13.370;2024-03-07T08:18:04;6.60;99.90
9772;DHT22;4925;52.588;13.370;2024-03-07T08:20:36;6.60;99.90
9772;DHT22;4925;52.588;13.370;2024-03-07T08:23:02;6.60;99.90
9772;DHT22;4925;52.588;13.370;2024-03-07T08:25:28;6.60;99.90
9772;DHT22;4925;52.588;13.370;2024-03-07T08:27:58;6.60;99.90
9772;DHT22;4925;52.588;13.370;2024-03-07T08:30:24;6.70;99.90
9772;DHT22;4925;52.588;13.370;2024-03-07T08:32:55;6.70;99.90
9772;DHT22;4925;52.588;13.370;2024-03-07T08:35:21;6.80;99.90
9772;DHT22;4925;52.588;13.370;2024-03-07T08:37:52;6.80;99.90
9772;DHT22;4925;52.588;13.370;2024-03-07T08:40:26;6.90;99.40
9772;DHT22;4925;52.588;13.370;2024-03-07T08:43:03;7.00;98.90
9772;DHT22;4925;52.588;13.370;2024-03-07T08:45:30;6.90;99.90
9772;DHT22;4925;52.588;13.370;2024-03-07T08:48:00;6.80;99.90
9772;DHT22;4925;52.588;13.370;2024-03-07T08:50:26;6.80;99.90
9772;DHT22;4925;52.588;13.370;2024-03-07T08:52:54;7.00;99.90
9772;DHT22;4925;52.588;13.370;2024-03-07T08:55:22;7.10;99.90
9772;DHT22;4925;52.588;13.370;2024-03-07T08:57:48;7.20;99.30
9772;DHT22;4925;52.588;13.370;2024-03-07T09:00:15;7.20;99.90
9772;DHT22;4925;52.588;13.370;2024-03-07T09:02:56;7.40;95.30
9772;DHT22;4925;52.588;13.370;2024-03-07T09:05:27;7.40;92.00
9772;DHT22;4925;52.588;13.370;2024-03-07T09:07:53;7.50;91.60
9772;DHT22;4925;52.588;13.370;2024-03-07T09:10:20;7.60;93.00
9772;DHT22;4925;52.588;13.370;2024-03-07T09:12:50;7.50;75.00
9772;DHT22;4925;52.588;13.370;2024-03-07T09:15:18;7.60;73.10
9772;DHT22;4925;52.588;13.370;2024-03-07T09:17:46;7.50;58.10
9772;DHT22;4925;52.588;13.370;2024-03-07T09:20:13;7.40;67.80
9772;DHT22;4925;52.588;13.370;2024-03-07T09:22:42;7.50;60.40
9772;DHT22;4925;52.588;13.370;2024-03-07T09:25:08;7.50;69.30
9772;DHT22;4925;52.588;13.370;2024-03-07T09:27:34;7.70;68.00
9772;DHT22;4925;52.588;13.370;2024-03-07T09:30:01;7.80;60.20
9772;DHT22;4925;52.588;13.370;2024-03-07T09:32:30;7.90;52.90
9772;DHT22;4925;52.588;13.370;2024-03-07T09:34:58;7.90;47.40
9772;DHT22;4925;52.588;13.370;2024-03-07T09:37:24;8.00;51.00
9772;DHT22;4925;52.588;13.370;2024-03-07T09:39:49;8.10;48.10
9772;DHT22;4925;52.588;13.370;2024-03-07T09:42:17;8.20;43.50
9772;DHT22;4925;52.588;13.370;2024-03-07T09:44:44;8.30;28.00
9772;DHT22;4925;52.588;13.370;2024-03-07T09:47:10;8.40;27.10
9772;DHT22;4925;52.588;13.370;2024-03-07T09:49:40;8.40;22.30
9772;DHT22;4925;52.588;13.370;2024-03-07T09:52:09;8.30;20.50
9772;DHT22;4925;52.588;13.370;2024-03-07T09:54:38;8.30;22.70
9772;DHT22;4925;52.588;13.370;2024-03-07T09:57:06;8.40;23.30
9772;DHT22;4925;52.588;13.370;2024-03-07T09:59:35;8.40;25.70
9772;DHT22;4925;52.588;13.370;2024-03-07T10:02:06;8.40;24.30
9772;DHT22;4925;52.588;13.370;2024-03-07T10:04:58;8.40;23.20
9772;DHT22;4925;52.588;13.370;2024-03-07T10:07:25;8.50;23.90
9772;DHT22;4925;52.588;13.370;2024-03-07T10:09:53;8.70;24.90
9772;DHT22;4925;52.588;13.370;2024-03-07T10:12:21;8.80;12.70
9772;DHT22;4925;52.588;13.370;2024-03-07T10:14:49;8.80;5.00
9772;DHT22;4925;52.588;13.370;2024-03-07T10:17:35;8.80;6.00
9772;DHT22;4925;52.588;13.370;2024-03-07T10:20:01;8.80;5.80
9772;DHT22;4925;52.588;13.370;2024-03-07T10:22:27;8.60;2.10
9772;DHT22;4925;52.588;13.370;2024-03-07T10:24:55;8.70;3.80
9772;DHT22;4925;52.588;13.370;2024-03-07T10:27:23;8.70;1.00
9772;DHT22;4925;52.588;13.370;2024-03-07T10:29:51;8.40;1.00
9772;DHT22;4925;52.588;13.370;2024-03-07T10:32:22;8.40;1.00
9772;DHT22;4925;52.588;13.370;2024-03-07T10:34:50;8.40;1.00
9772;DHT22;4925;52.588;13.370;2024-03-07T10:37:16;8.60;1.00
9772;DHT22;4925;52.588;13.370;2024-03-07T10:39:47;8.80;1.00
9772;DHT22;4925;52.588;13.370;2024-03-07T10:42:15;8.90;1.00
9772;DHT22;4925;52.588;13.370;2024-03-07T10:44:47;8.90;1.00
9772;DHT22;4925;52.588;13.370;2024-03-07T10:47:17;9.00;1.00
9772;DHT22;4925;52.588;13.370;2024-03-07T10:50:07;9.10;1.00
9772;DHT22;4925;52.588;13.370;2024-03-07T10:58:32;9.60;1.00
9772;DHT22;4925;52.588;13.370;2024-03-07T11:01:02;9.60;1.00
9772;DHT22;4925;52.588;13.370;2024-03-07T11:03:35;9.70;1.00
9772;DHT22;4925;52.588;13.370;2024-03-07T11:06:01;9.80;1.00
9772;DHT22;4925;52.588;13.370;2024-03-07T11:08:33;9.80;1.00
9772;DHT22;4925;52.588;13.370;2024-03-07T11:11:00;9.80;1.00
9772;DHT22;4925;52.588;13.370;2024-03-07T11:13:26;9.80;1.00
9772;DHT22;4925;52.588;13.370;2024-03-07T11:15:58;9.50;1.00
9772;DHT22;4925;52.588;13.370;2024-03-07T11:18:27;9.60;1.00
9772;DHT22;4925;52.588;13.370;2024-03-07T11:20:54;9.90;1.00
9772;DHT22;4925;52.588;13.370;2024-03-07T11:23:29;9.90;1.00
9772;DHT22;4925;52.588;13.370;2024-03-07T11:26:06;10.10;1.00
9772;DHT22;4925;52.588;13.370;2024-03-07T11:28:34;10.00;1.00
9772;DHT22;4925;52.588;13.370;2024-03-07T11:33:41;10.40;1.00
9772;DHT22;4925;52.588;13.370;2024-03-07T11:36:08;10.50;1.00
9772;DHT22;4925;52.588;13.370;2024-03-07T11:38:35;10.60;1.00
9772;DHT22;4925;52.588;13.370;2024-03-07T11:41:01;10.90;1.00
9772;DHT22;4925;52.588;13.370;2024-03-07T11:43:33;11.10;1.00
9772;DHT22;4925;52.588;13.370;2024-03-07T11:45:59;11.10;1.00
9772;DHT22;4925;52.588;13.370;2024-03-07T11:48:25;11.30;1.00
9772;DHT22;4925;52.588;13.370;2024-03-07T11:50:53;11.20;1.00
9772;DHT22;4925;52.588;13.370;2024-03-07T11:53:20;11.30;1.00
9772;DHT22;4925;52.588;13.370;2024-03-07T11:55:47;11.10;1.00
9772;DHT22;4925;52.588;13.370;2024-03-07T11:58:14;11.30;1.00
9772;DHT22;4925;52.588;13.370;2024-03-07T12:00:45;11.20;1.00
9772;DHT22;4925;52.588;13.370;2024-03-07T12:03:15;11.40;1.00
9772;DHT22;4925;52.588;13.370;2024-03-07T12:05:46;11.30;1.00
9772;DHT22;4925;52.588;13.370;2024-03-07T12:08:16;11.30;1.00
9772;DHT22;4925;52.588;13.370;2024-03-07T12:10:43;11.50;1.00
9772;DHT22;4925;52.588;13.370;2024-03-07T12:13:12;11.70;1.00
9772;DHT22;4925;52.588;13.370;2024-03-07T12:15:41;11.70;1.00
9772;DHT22;4925;52.588;13.370;2024-03-07T12:18:08;11.90;1.00
9772;DHT22;4925;52.588;13.370;2024-03-07T12:20:39;11.80;1.00
9772;DHT22;4925;52.588;13.370;2024-03-07T12:23:07;11.90;1.00
9772;DHT22;4925;52.588;13.370;2024-03-07T12:25:37;11.80;1.00
9772;DHT22;4925;52.588;13.370;2024-03-07T12:28:04;11.50;1.00
9772;DHT22;4925;52.588;13.370;2024-03-07T12:33:15;11.60;1.00
9772;DHT22;4925;52.588;13.370;2024-03-07T12:35:43;11.60;1.00
9772;DHT22;4925;52.588;13.370;2024-03-07T12:38:10;11.50;1.00
9772;DHT22;4925;52.588;13.370;2024-03-07T12:40:37;11.50;1.00
9772;DHT22;4925;52.588;13.370;2024-03-07T12:43:21;11.60;1.00
9772;DHT22;4925;52.588;13.370;2024-03-07T12:45:51;11.80;1.00
9772;DHT22;4925;52.588;13.370;2024-03-07T12:48:17;11.90;1.00
9772;DHT22;4925;52.588;13.370;2024-03-07T12:50:48;12.00;1.00
9772;DHT22;4925;52.588;13.370;2024-03-07T12:53:20;12.10;1.00
9772;DHT22;4925;52.588;13.370;2024-03-07T12:55:47;12.30;1.00
9772;DHT22;4925;52.588;13.370;2024-03-07T12:58:13;12.50;1.00
9772;DHT22;4925;52.588;13.370;2024-03-07T13:00:41;12.60;1.00
9772;DHT22;4925;52.588;13.370;2024-03-07T13:03:07;12.70;1.00
9772;DHT22;4925;52.588;13.370;2024-03-07T13:05:39;12.70;1.00
9772;DHT22;4925;52.588;13.370;2024-03-07T13:08:13;12.50;1.00
9772;DHT22;4925;52.588;13.370;2024-03-07T13:10:42;12.50;1.00
9772;DHT22;4925;52.588;13.370;2024-03-07T13:13:09;12.80;1.00
9772;DHT22;4925;52.588;13.370;2024-03-07T13:15:39;12.60;1.00
9772;DHT22;4925;52.588;13.370;2024-03-07T13:18:07;12.60;1.00
9772;DHT22;4925;52.588;13.370;2024-03-07T13:20:35;12.30;1.00
9772;DHT22;4925;52.588;13.370;2024-03-07T13:23:02;12.20;1.00
9772;DHT22;4925;52.588;13.370;2024-03-07T13:25:28;12.50;1.00
9772;DHT22;4925;52.588;13.370;2024-03-07T13:28:08;12.70;1.00
9772;DHT22;4925;52.588;13.370;2024-03-07T13:30:50;12.80;1.00
9772;DHT22;4925;52.588;13.370;2024-03-07T13:33:16;12.90;1.00
9772;DHT22;4925;52.588;13.370;2024-03-07T13:35:43;13.00;1.00
9772;DHT22;4925;52.588;13.370;2024-03-07T13:38:09;13.00;1.00
9772;DHT22;4925;52.588;13.370;2024-03-07T13:40:35;13.20;1.00
9772;DHT22;4925;52.588;13.370;2024-03-07T13:43:05;13.40;1.00
9772;DHT22;4925;52.588;13.370;2024-03-07T13:45:33;13.40;1.00
9772;DHT22;4925;52.588;13.370;2024-03-07T13:48:10;13.30;1.00
9772;DHT22;4925;52.588;13.370;2024-03-07T13:50:37;13.10;1.00
9772;DHT22;4925;52.588;13.370;2024-03-07T13:53:03;13.00;1.00
9772;DHT22;4925;52.588;13.370;2024-03-07T14:07:30;12.80;1.00
9772;DHT22;4925;52.588;13.370;2024-03-07T14:25:43;12.70;1.00
9772;DHT22;4925;52.588;13.370;2024-03-07T14:28:42;12.70;1.00
9772;DHT22;4925;52.588;13.370;2024-03-07T14:31:13;12.50;1.00
9772;DHT22;4925;52.588;13.370;2024-03-07T14:34:00;12.60;1.00
9772;DHT22;4925;52.588;13.370;2024-03-07T14:36:46;12.50;1.00
9772;DHT22;4925;52.588;13.370;2024-03-07T14:39:14;12.50;1.00
9772;DHT22;4925;52.588;13.370;2024-03-07T14:44:17;12.60;1.00
9772;DHT22;4925;52.588;13.370;2024-03-07T14:46:43;12.50;1.00
9772;DHT22;4925;52.588;13.370;2024-03-07T14:49:17;12.40;1.00
9772;DHT22;4925;52.588;13.370;2024-03-07T14:51:43;12.50;1.00
9772;DHT22;4925;52.588;13.370;2024-03-07T14:54:09;12.50;1.00
9772;DHT22;4925;52.588;13.370;2024-03-07T14:56:36;12.40;1.00
9772;DHT22;4925;52.588;13.370;2024-03-07T14:59:01;12.50;1.00
9772;DHT22;4925;52.588;13.370;2024-03-07T15:01:30;12.50;1.00
9772;DHT22;4925;52.588;13.370;2024-03-07T15:03:57;12.50;1.00
9772;DHT22;4925;52.588;13.370;2024-03-07T15:06:23;12.30;1.00
9772;DHT22;4925;52.588;13.370;2024-03-07T15:08:49;12.10;1.00
9772;DHT22;4925;52.588;13.370;2024-03-07T15:11:37;12.30;1.00
9772;DHT22;4925;52.588;13.370;2024-03-07T15:14:09;12.40;1.00
9772;DHT22;4925;52.588;13.370;2024-03-07T15:16:35;12.30;1.00
9772;DHT22;4925;52.588;13.370;2024-03-07T15:19:05;12.00;1.00
9772;DHT22;4925;52.588;13.370;2024-03-07T15:21:31;11.80;1.00
9772;DHT22;4925;52.588;13.370;2024-03-07T15:23:58;11.60;1.00
9772;DHT22;4925;52.588;13.370;2024-03-07T15:26:25;11.60;1.00
9772;DHT22;4925;52.588;13.370;2024-03-07T15:28:52;11.70;1.00
9772;DHT22;4925;52.588;13.370;2024-03-07T15:31:20;11.80;1.00
9772;DHT22;4925;52.588;13.370;2024-03-07T15:33:48;12.00;1.00
9772;DHT22;4925;52.588;13.370;2024-03-07T15:36:15;12.00;1.00
9772;DHT22;4925;52.588;13.370;2024-03-07T15:38:41;11.80;1.00
9772;DHT22;4925;52.588;13.370;2024-03-07T15:41:07;11.60;1.00
9772;DHT22;4925;52.588;13.370;2024-03-07T15:43:35;11.30;1.00
9772;DHT22;4925;52.588;13.370;2024-03-07T15:46:02;11.30;1.00
9772;DHT22;4925;52.588;13.370;2024-03-07T15:48:32;11.20;1.00
9772;DHT22;4925;52.588;13.370;2024-03-07T15:50:58;11.10;1.00
9772;DHT22;4925;52.588;13.370;2024-03-07T15:53:25;11.10;1.00
9772;DHT22;4925;52.588;13.370;2024-03-07T15:55:51;11.10;1.00
9772;DHT22;4925;52.588;13.370;2024-03-07T15:58:17;11.00;1.00
9772;DHT22;4925;52.588;13.370;2024-03-07T16:00:44;11.10;1.00
9772;DHT22;4925;52.588;13.370;2024-03-07T16:03:13;11.00;1.00
9772;DHT22;4925;52.588;13.370;2024-03-07T16:05:41;10.80;1.00
9772;DHT22;4925;52.588;13.370;2024-03-07T16:08:08;10.70;1.00
9772;DHT22;4925;52.588;13.370;2024-03-07T16:10:40;10.50;1.00
9772;DHT22;4925;52.588;13.370;2024-03-07T16:13:11;10.40;1.00
9772;DHT22;4925;52.588;13.370;2024-03-07T16:15:45;10.30;1.00
9772;DHT22;4925;52.588;13.370;2024-03-07T16:18:14;10.20;1.00
9772;DHT22;4925;52.588;13.370;2024-03-07T16:20:40;10.10;1.00
9772;DHT22;4925;52.588;13.370;2024-03-07T16:23:06;9.90;1.00
9772;DHT22;4925;52.588;13.370;2024-03-07T16:25:33;9.90;1.00
9772;DHT22;4925;52.588;13.370;2024-03-07T16:28:07;9.80;1.00
9772;DHT22;4925;52.588;13.370;2024-03-07T16:30:33;9.70;1.00
9772;DHT22;4925;52.588;13.370;2024-03-07T16:32:59;9.70;1.00
9772;DHT22;4925;52.588;13.370;2024-03-07T16:35:26;9.80;53.50
9772;DHT22;4925;52.588;13.370;2024-03-07T16:37:53;10.10;95.30
9772;DHT22;4925;52.588;13.370;2024-03-07T16:40:22;10.50;2.60
9772;DHT22;4925;52.588;13.370;2024-03-07T16:42:50;10.70;53.40
9772;DHT22;4925;52.588;13.370;2024-03-07T16:45:19;10.90;1.00
9772;DHT22;4925;52.588;13.370;2024-03-07T16:47:49;10.80;1.00
9772;DHT22;4925;52.588;13.370;2024-03-07T16:50:22;10.60;1.00
9772;DHT22;4925;52.588;13.370;2024-03-07T16:52:48;10.40;1.00
9772;DHT22;4925;52.588;13.370;2024-03-07T16:55:17;10.30;1.00
9772;DHT22;4925;52.588;13.370;2024-03-07T16:57:49;10.20;1.00